Time;durP1;ratioP1;P1;durP2;ratioP2;P2;SDS_P1;SDS_P2;PMS_P1;PMS_P2;Temp;Humidity;BMP_temperature;BMP_pressure;BME280_temperature;BME280_humidity;BME280_pressure;Samples;Min_cycle;Max_cycle;Signal;HPM_P1;HPM_P2
2023/04/27 00:00:12;;;;;;;33.45;18.25;;;;;;;12.71;67.51;97693.22;5052465;28;20177;-62
2023/04/27 00:02:37;;;;;;;8.55;6.13;;;;;;;12.18;67.79;97595.94;5052286;28;20214;-62
2023/04/27 00:05:04;;;;;;;5.78;4.70;;;;;;;12.68;67.77;97693.50;5052361;28;20184;-61
2023/04/27 00:07:30;;;;;;;9.68;7.60;;;;;;;12.17;67.80;97615.03;5052236;28;20251;-62
2023/04/27 00:09:55;;;;;;;10.07;7.57;;;;;;;12.39;67.59;97651.94;5052210;28;20400;-62
2023/04/27 00:12:21;;;;;;;3.40;3.20;;;;;;;12.17;67.87;97636.63;5052217;28;20624;-62
2023/04/27 00:14:46;;;;;;;7.22;5.28;;;;;;;12.60;68.03;97701.13;5053797;28;20185;-61
2023/04/27 00:17:12;;;;;;;8.88;6.05;;;;;;;12.56;67.83;97690.22;5054509;28;20183;-61
2023/04/27 00:19:38;;;;;;;8.98;6.70;;;;;;;12.28;67.60;97643.44;5054468;28;20623;-62
2023/04/27 00:22:05;;;;;;;3.00;2.80;;;;;;;12.16;67.58;97631.56;5054364;28;20664;-62
2023/04/27 00:24:30;;;;;;;2.80;2.60;;;;;;;12.51;67.43;97691.56;5054385;28;20177;-61
2023/04/27 00:26:56;;;;;;;3.40;3.15;;;;;;;12.59;67.94;97721.06;5054360;28;20182;-62
2023/04/27 00:29:21;;;;;;;4.35;4.05;;;;;;;12.50;67.90;97710.69;5054242;28;20177;-61
2023/04/27 00:31:47;;;;;;;3.55;3.25;;;;;;;12.16;68.71;97654.91;5054297;28;20183;-62
2023/04/27 00:34:12;;;;;;;2.78;2.58;;;;;;;12.43;68.78;97700.00;5054203;28;20166;-62
2023/04/27 00:36:38;;;;;;;3.65;2.70;;;;;;;12.15;70.52;97668.81;5054191;28;20170;-61
2023/04/27 00:39:05;;;;;;;3.58;3.30;;;;;;;12.51;72.66;97735.66;5054114;28;20170;-61
2023/04/27 00:41:31;;;;;;;3.42;3.13;;;;;;;12.40;72.74;97738.38;5053936;28;20178;-61
2023/04/27 00:43:57;;;;;;;7.18;3.20;;;;;;;11.99;72.99;97673.69;5051851;28;20181;-62
2023/04/27 00:46:23;;;;;;;6.25;3.47;;;;;;;12.47;71.37;97747.25;5053972;28;20264;-62
2023/04/27 00:48:49;;;;;;;5.43;3.13;;;;;;;12.53;71.52;97742.38;5053979;28;20174;-62
2023/04/27 00:51:14;;;;;;;4.35;2.88;;;;;;;11.97;72.22;97675.59;5053874;28;20193;-62
2023/04/27 00:53:40;;;;;;;4.80;3.45;;;;;;;12.11;73.49;97708.91;5053806;28;20186;-61
2023/04/27 00:56:06;;;;;;;3.67;3.28;;;;;;;12.45;72.93;97785.50;5053797;28;20182;-62
2023/04/27 00:58:32;;;;;;;3.25;2.72;;;;;;;12.02;72.87;97720.09;5031043;28;20269;-62
2023/04/27 01:00:58;;;;;;;3.28;2.97;;;;;;;11.81;75.68;97695.97;5031663;28;20216;-61
2023/04/27 01:03:25;;;;;;;3.45;2.67;;;;;;;12.15;76.62;97757.00;5031101;28;20276;-62
2023/04/27 01:05:50;;;;;;;4.85;3.08;;;;;;;12.08;78.66;97740.31;4992007;28;20616;-61
2023/04/27 01:08:16;;;;;;;3.33;3.03;;;;;;;12.05;79.43;97740.56;4991573;28;20192;-62
2023/04/27 01:10:41;;;;;;;5.40;3.20;;;;;;;11.76;83.84;97698.97;4991538;28;20645;-62
2023/04/27 01:13:06;;;;;;;4.25;3.25;;;;;;;11.97;81.02;97750.78;4991751;28;20705;-62
2023/04/27 01:15:32;;;;;;;3.58;3.13;;;;;;;11.90;81.71;97726.31;4992011;28;20234;-61
2023/04/27 01:17:58;;;;;;;6.25;3.35;;;;;;;11.83;82.28;97730.34;4991673;28;20192;-61
2023/04/27 01:20:24;;;;;;;5.65;3.35;;;;;;;11.76;80.41;97706.75;4991695;28;20275;-61
2023/04/27 01:22:50;;;;;;;3.22;2.92;;;;;;;11.78;79.21;97722.19;4991611;28;20211;-62
2023/04/27 01:25:16;;;;;;;4.45;3.17;;;;;;;11.95;79.83;97750.06;4991579;28;20184;-62
2023/04/27 01:27:41;;;;;;;5.03;3.35;;;;;;;11.76;83.14;97731.84;4991537;28;20191;-62
2023/04/27 01:30:07;;;;;;;4.53;3.50;;;;;;;11.86;81.35;97751.69;5006144;28;20274;-62
2023/04/27 01:32:32;;;;;;;4.93;2.83;;;;;;;11.83;81.68;97754.53;5011024;28;20257;-61
2023/04/27 01:34:58;;;;;;;3.00;2.80;;;;;;;11.47;82.91;97710.91;5025649;28;20210;-61
2023/04/27 01:37:23;;;;;;;6.00;2.92;;;;;;;11.50;80.32;97715.03;5046888;28;20190;-61
2023/04/27 01:39:48;;;;;;;4.47;3.38;;;;;;;11.87;79.28;97783.59;5052947;28;20177;-61
2023/04/27 01:42:14;;;;;;;3.90;3.20;;;;;;;11.62;79.33;97743.34;5052893;28;20197;-61
2023/04/27 01:44:39;;;;;;;4.50;3.05;;;;;;;11.41;78.47;97723.56;5052855;28;20648;-62
2023/04/27 01:47:05;;;;;;;5.43;3.25;;;;;;;11.40;80.38;97732.28;5052821;28;20186;-62
2023/04/27 01:49:30;;;;;;;3.35;3.05;;;;;;;11.51;81.77;97765.88;5050292;28;20186;-62
2023/04/27 01:51:55;;;;;;;3.47;3.17;;;;;;;11.50;79.37;97756.47;5050580;28;20200;-62
2023/04/27 01:54:21;;;;;;;7.95;3.50;;;;;;;11.41;76.20;97733.91;5050294;28;20186;-62
2023/04/27 01:56:46;;;;;;;4.63;2.95;;;;;;;11.75;76.19;97790.63;5050331;28;20178;-61
2023/04/27 01:59:12;;;;;;;3.67;3.08;;;;;;;11.89;79.20;97794.66;5050022;28;20201;-62
2023/04/27 02:01:37;;;;;;;4.63;2.92;;;;;;;11.60;73.92;97734.06;5050130;28;20182;-62
2023/04/27 02:04:03;;;;;;;6.78;3.55;;;;;;;12.05;75.62;97815.75;5050161;28;20185;-62
2023/04/27 02:06:28;;;;;;;7.68;2.63;;;;;;;11.46;77.37;97731.75;5050104;28;20608;-62
2023/04/27 02:08:53;;;;;;;4.78;2.70;;;;;;;11.63;74.20;97764.91;5050070;28;20656;-62
2023/04/27 02:11:19;;;;;;;5.40;2.88;;;;;;;11.77;73.45;97785.31;5050085;28;20193;-62
2023/04/27 02:13:44;;;;;;;3.95;2.88;;;;;;;11.93;75.32;97811.59;5050007;28;20324;-62
2023/04/27 02:16:09;;;;;;;3.13;2.90;;;;;;;11.78;74.84;97779.19;5049965;28;20294;-62
2023/04/27 02:18:35;;;;;;;3.88;2.95;;;;;;;11.80;72.72;97800.63;5049932;28;20170;-62
2023/04/27 02:21:00;;;;;;;3.83;2.70;;;;;;;12.01;70.78;97822.16;5050476;28;20193;-62
2023/04/27 02:23:26;;;;;;;3.33;3.03;;;;;;;11.47;72.46;97738.59;5052178;28;20284;-61
2023/04/27 02:25:51;;;;;;;5.20;3.17;;;;;;;11.93;71.71;97832.34;5051976;28;20698;-62
2023/04/27 02:28:16;;;;;;;6.50;3.40;;;;;;;11.56;70.92;97763.75;5052216;28;20165;-61
2023/04/27 02:30:42;;;;;;;5.63;3.08;;;;;;;11.64;74.77;97788.09;5052194;28;20180;-62
2023/04/27 02:33:07;;;;;;;5.05;2.95;;;;;;;11.95;71.59;97823.47;5052202;28;20180;-62
2023/04/27 02:35:33;;;;;;;2.85;2.65;;;;;;;11.81;71.50;97794.47;5052123;28;20181;-62
2023/04/27 02:37:58;;;;;;;3.83;3.20;;;;;;;12.04;72.41;97837.44;5052106;28;20276;-62
2023/04/27 02:40:24;;;;;;;3.85;3.00;;;;;;;11.59;70.39;97759.16;5052095;28;20178;-62
2023/04/27 02:42:50;;;;;;;6.90;2.80;;;;;;;11.53;68.80;97744.09;5051726;28;20251;-62
2023/04/27 02:45:15;;;;;;;4.60;2.90;;;;;;;12.07;70.23;97837.22;5051986;28;20658;-62
2023/04/27 02:47:41;;;;;;;4.65;2.67;;;;;;;12.09;68.70;97836.09;5052040;28;20253;-62
2023/04/27 02:50:07;;;;;;;2.85;2.65;;;;;;;11.83;69.98;97808.13;5052018;28;20180;-62
2023/04/27 02:52:32;;;;;;;2.70;2.50;;;;;;;11.73;69.13;97797.69;5051971;28;20240;-62
2023/04/27 02:54:58;;;;;;;3.25;2.33;;;;;;;11.52;68.30;97770.94;5051632;28;20558;-62
2023/04/27 02:57:23;;;;;;;2.55;2.30;;;;;;;11.99;66.46;97834.41;5051736;28;20174;-62
2023/04/27 02:59:48;;;;;;;4.47;2.95;;;;;;;11.57;70.47;97765.38;5029511;28;20186;-62
2023/04/27 03:02:14;;;;;;;5.40;2.30;;;;;;;12.00;69.54;97854.19;5029534;28;20667;-62
2023/04/27 03:04:39;;;;;;;6.03;2.67;;;;;;;11.54;66.23;97770.81;5029487;28;20214;-62
2023/04/27 03:07:05;;;;;;;2.88;2.50;;;;;;;12.08;66.36;97864.78;5029595;28;20185;-62
2023/04/27 03:09:30;;;;;;;6.97;3.58;;;;;;;12.09;65.04;97867.22;5029530;28;20195;-62
2023/04/27 03:11:56;;;;;;;3.65;2.60;;;;;;;11.55;65.46;97772.47;5029563;28;20270;-62
2023/04/27 03:14:22;;;;;;;4.50;2.40;;;;;;;11.76;64.83;97815.59;5029759;28;20677;-62
2023/04/27 03:16:47;;;;;;;3.05;2.25;;;;;;;12.15;64.05;97866.75;5029519;28;20178;-62
2023/04/27 03:19:13;;;;;;;4.60;2.67;;;;;;;11.87;65.75;97828.50;5029489;28;20290;-62
2023/04/27 03:21:38;;;;;;;6.25;2.40;;;;;;;11.74;66.06;97799.34;5029363;28;20186;-62
2023/04/27 03:24:04;;;;;;;3.25;2.45;;;;;;;12.22;64.84;97867.03;5029404;28;20232;-62
2023/04/27 03:26:29;;;;;;;4.18;2.65;;;;;;;11.96;63.39;97824.31;5029355;28;20660;-62
2023/04/27 03:28:55;;;;;;;3.75;2.75;;;;;;;11.91;63.84;97816.09;5029400;28;20179;-62
2023/04/27 03:31:20;;;;;;;5.68;2.22;;;;;;;12.30;63.14;97881.00;5045395;28;20217;-62
2023/04/27 03:33:46;;;;;;;2.28;2.10;;;;;;;11.96;62.04;97824.31;5055009;28;20173;-62
2023/04/27 03:36:11;;;;;;;2.97;2.38;;;;;;;11.98;61.45;97825.00;5055322;28;20186;-62
2023/04/27 03:38:37;;;;;;;3.42;2.50;;;;;;;12.03;62.65;97852.19;5055246;28;20177;-62
2023/04/27 03:41:02;;;;;;;5.18;2.53;;;;;;;12.22;61.51;97874.81;5054957;28;20174;-62
2023/04/27 03:43:28;;;;;;;3.83;2.20;;;;;;;11.97;61.68;97846.69;5054768;28;20193;-62
2023/04/27 03:45:53;;;;;;;3.08;2.50;;;;;;;11.68;62.93;97792.06;5055122;28;20189;-62
2023/04/27 03:48:19;;;;;;;2.97;2.20;;;;;;;12.16;61.66;97886.53;5055108;28;20315;-62
2023/04/27 03:50:45;;;;;;;10.18;2.50;;;;;;;11.86;62.51;97833.81;5055063;28;20628;-62
2023/04/27 03:53:11;;;;;;;4.60;2.20;;;;;;;12.10;63.92;97894.81;5054989;28;20170;-62
2023/04/27 03:55:41;;;;;;;5.88;2.88;;;;;;;11.85;63.33;97848.50;5054964;28;20212;-62
2023/04/27 03:58:06;;;;;;;4.38;2.75;;;;;;;11.69;62.71;97813.63;5054660;28;20525;-62
2023/04/27 04:00:33;;;;;;;7.63;2.38;;;;;;;11.65;64.00;97814.81;5054847;28;20243;-62
2023/04/27 04:02:58;;;;;;;6.28;2.47;;;;;;;12.05;62.41;97875.41;5054682;28;20225;-62
2023/04/27 04:05:24;;;;;;;3.85;2.30;;;;;;;12.22;61.41;97893.81;5054721;28;20663;-62
2023/04/27 04:07:49;;;;;;;3.08;2.50;;;;;;;12.29;61.29;97901.88;5054679;28;20170;-62
2023/04/27 04:10:15;;;;;;;4.75;2.35;;;;;;;12.03;62.53;97866.94;5052090;28;20193;-62
2023/04/27 04:12:40;;;;;;;5.32;2.55;;;;;;;12.09;65.46;97893.16;5052196;28;20316;-62
2023/04/27 04:15:10;;;;;;;4.70;2.42;;;;;;;12.20;61.21;97905.25;5052164;28;20189;-62
2023/04/27 04:17:35;;;;;;;2.92;2.60;;;;;;;12.21;61.61;97909.50;5052177;28;20173;-62
2023/04/27 04:20:01;;;;;;;3.88;2.65;;;;;;;12.25;62.87;97918.66;5052103;28;20289;-62
2023/04/27 04:22:26;;;;;;;6.43;2.97;;;;;;;12.32;62.76;97914.59;5051991;28;20263;-62
2023/04/27 04:24:52;;;;;;;7.65;3.00;;;;;;;12.19;64.57;97877.69;5052023;28;20186;-62
2023/04/27 04:27:18;;;;;;;4.60;2.50;;;;;;;12.46;61.02;97916.88;5051962;28;20173;-62
2023/04/27 04:29:43;;;;;;;2.40;2.20;;;;;;;12.08;59.64;97867.38;5051876;28;20186;-62
2023/04/27 04:32:08;;;;;;;3.97;2.70;;;;;;;12.47;59.98;97921.09;5051892;28;20178;-62
2023/04/27 04:34:37;;;;;;;5.97;2.92;;;;;;;12.34;60.59;97907.50;5051834;28;20178;-62
2023/04/27 04:37:03;;;;;;;4.85;2.88;;;;;;;12.12;59.23;97871.34;5051788;28;20186;-62
2023/04/27 04:39:32;;;;;;;4.25;2.30;;;;;;;11.87;59.17;97838.88;5051749;28;20190;-62
2023/04/27 04:41:57;;;;;;;3.42;2.45;;;;;;;12.09;59.53;97876.78;5053187;28;20316;-62
2023/04/27 04:44:23;;;;;;;4.18;2.50;;;;;;;11.86;59.60;97852.78;5053007;28;20190;-62
2023/04/27 04:46:48;;;;;;;3.97;3.00;;;;;;;12.09;60.29;97881.97;5054027;28;20265;-62
2023/04/27 04:49:14;;;;;;;3.60;2.65;;;;;;;12.02;60.27;97878.25;5053858;28;20697;-62
2023/04/27 04:51:44;;;;;;;6.45;2.78;;;;;;;12.14;60.04;97879.84;5053847;28;20739;-62
2023/04/27 04:54:10;;;;;;;6.18;3.22;;;;;;;12.27;62.29;97893.41;5053809;28;20192;-62
2023/04/27 04:56:35;;;;;;;3.80;2.97;;;;;;;12.46;59.94;97919.47;5051286;28;20189;-62
2023/04/27 04:59:01;;;;;;;7.50;3.03;;;;;;;12.05;59.42;97865.84;5051177;28;20282;-62
2023/04/27 05:01:26;;;;;;;4.25;3.00;;;;;;;12.25;59.18;97903.09;5051311;28;20188;-62
2023/04/27 05:03:52;;;;;;;5.00;2.58;;;;;;;12.08;59.17;97867.38;5051271;28;20709;-62
2023/04/27 05:06:17;;;;;;;5.82;2.42;;;;;;;12.41;58.53;97914.66;5051272;28;20185;-62
2023/04/27 05:08:43;;;;;;;4.43;2.78;;;;;;;12.05;59.09;97870.22;5051227;28;20182;-62
2023/04/27 05:11:08;;;;;;;3.20;2.10;;;;;;;12.06;59.17;97888.25;5051143;28;20182;-62
2023/04/27 05:13:34;;;;;;;2.55;2.35;;;;;;;12.38;59.46;97945.22;5051146;28;20645;-61
2023/04/27 05:16:03;;;;;;;3.22;2.15;;;;;;;12.34;58.38;97925.66;5051054;28;20277;-62
2023/04/27 05:18:29;;;;;;;6.28;2.15;;;;;;;12.38;59.07;97937.44;5051024;28;20224;-62
2023/04/27 05:20:55;;;;;;;4.20;2.65;;;;;;;12.44;60.46;97950.72;5050948;28;20197;-63
2023/04/27 05:23:20;;;;;;;4.28;2.20;;;;;;;12.04;58.92;97876.34;5050778;28;20559;-61
2023/04/27 05:25:45;;;;;;;4.47;2.10;;;;;;;12.39;58.42;97928.72;5050822;28;20178;-61
2023/04/27 05:28:11;;;;;;;5.90;2.38;;;;;;;12.19;59.29;97888.06;5050797;28;20182;-61
2023/04/27 05:30:36;;;;;;;3.58;2.42;;;;;;;12.18;59.88;97894.16;5050825;28;20260;-62
2023/04/27 05:33:03;;;;;;;3.90;2.40;;;;;;;12.69;57.94;97991.03;5050868;28;20174;-62
2023/04/27 05:35:29;;;;;;;3.30;2.60;;;;;;;12.57;59.82;97966.94;5052976;28;20186;-62
2023/04/27 05:37:55;;;;;;;3.65;2.67;;;;;;;12.11;58.30;97908.59;5052927;28;20174;-62
2023/04/27 05:40:21;;;;;;;5.05;2.65;;;;;;;12.27;56.51;97943.53;5052806;28;20340;-62
2023/04/27 05:42:46;;;;;;;2.67;2.20;;;;;;;12.30;57.99;97945.03;5052712;28;20284;-61
2023/04/27 05:45:12;;;;;;;4.57;2.30;;;;;;;12.43;57.94;97972.44;5052707;28;20181;-61
2023/04/27 05:47:37;;;;;;;2.33;2.10;;;;;;;12.40;58.40;97964.06;5052840;28;20644;-62
2023/04/27 05:50:03;;;;;;;4.93;2.53;;;;;;;12.24;58.05;97928.22;5052874;28;20178;-62
2023/04/27 05:52:29;;;;;;;6.35;2.65;;;;;;;12.42;58.37;97952.63;5052429;28;20182;-62
2023/04/27 05:54:57;;;;;;;3.58;2.10;;;;;;;12.38;57.92;97951.22;5052353;28;20243;-62
2023/04/27 05:57:23;;;;;;;4.43;2.13;;;;;;;12.57;56.60;97974.72;5052424;28;20603;-62
2023/04/27 05:59:48;;;;;;;4.35;2.22;;;;;;;12.20;56.17;97902.66;5052419;28;20189;-62
2023/04/27 06:02:14;;;;;;;4.55;2.60;;;;;;;12.65;56.00;97987.06;5051975;28;20200;-61
2023/04/27 06:04:39;;;;;;;2.38;1.98;;;;;;;12.13;56.45;97920.50;5052298;28;20200;-62
2023/04/27 06:07:08;;;;;;;2.40;2.20;;;;;;;12.51;57.22;97987.38;5052289;28;20178;-62
2023/04/27 06:09:34;;;;;;;3.53;2.35;;;;;;;12.37;56.51;97961.75;5052283;28;20632;-62
2023/04/27 06:12:01;;;;;;;5.50;2.20;;;;;;;12.11;57.32;97918.97;5052190;28;20180;-62
2023/04/27 06:14:27;;;;;;;4.82;2.85;;;;;;;12.61;56.37;97999.44;5051874;28;20656;-62
2023/04/27 06:16:52;;;;;;;3.10;2.42;;;;;;;12.36;56.68;97965.31;5051853;28;20174;-62
2023/04/27 06:19:18;;;;;;;3.05;2.00;;;;;;;12.44;57.75;97970.66;5052162;28;20213;-62
2023/04/27 06:21:43;;;;;;;3.55;2.50;;;;;;;12.43;56.89;97964.63;5052045;28;20624;-62
2023/04/27 06:24:08;;;;;;;4.47;2.30;;;;;;;12.45;56.18;97962.75;5052002;28;20239;-62
2023/04/27 06:26:34;;;;;;;2.13;1.90;;;;;;;12.22;54.85;97922.34;5051891;28;20724;-62
2023/04/27 06:28:59;;;;;;;6.13;2.40;;;;;;;12.70;55.86;98014.25;5051924;28;20272;-62
2023/04/27 06:31:25;;;;;;;4.70;3.00;;;;;;;12.31;55.98;97949.28;5052098;28;20212;-62
2023/04/27 06:33:51;;;;;;;7.18;2.90;;;;;;;12.36;56.83;97965.31;5052191;28;20265;-61
2023/04/27 06:36:16;;;;;;;7.13;2.30;;;;;;;12.65;54.56;98010.41;5052172;28;20256;-61
2023/04/27 06:38:42;;;;;;;3.35;2.33;;;;;;;12.22;55.98;97924.09;5052118;28;20192;-61
2023/04/27 06:41:07;;;;;;;4.07;2.30;;;;;;;12.81;55.78;98021.97;5048984;28;20189;-62
2023/04/27 06:43:32;;;;;;;4.75;2.40;;;;;;;12.50;56.18;97959.78;5049463;28;20206;-62
2023/04/27 06:45:58;;;;;;;5.10;2.30;;;;;;;12.79;55.11;97981.53;5049290;28;20189;-61
2023/04/27 06:48:23;;;;;;;4.95;2.60;;;;;;;12.59;55.24;97933.03;5048652;28;20751;-62
2023/04/27 06:50:49;;;;;;;5.00;2.30;;;;;;;12.82;56.06;97956.13;5049926;28;20190;-62
2023/04/27 06:53:16;;;;;;;2.97;2.22;;;;;;;13.25;54.32;98020.84;5049519;28;20184;-62
2023/04/27 06:55:42;;;;;;;2.83;2.40;;;;;;;13.35;54.48;98038.13;5049293;28;20221;-61
2023/04/27 06:58:07;;;;;;;6.88;2.13;;;;;;;13.29;53.43;97999.66;5049293;28;20256;-61
2023/04/27 07:00:32;;;;;;;5.45;2.80;;;;;;;13.41;53.48;98016.81;5049378;28;20190;-61
2023/04/27 07:02:58;;;;;;;2.85;2.05;;;;;;;13.41;53.00;98019.41;5049227;28;20205;-62
2023/04/27 07:05:23;;;;;;;2.30;2.10;;;;;;;13.08;52.86;97959.13;5049171;28;20213;-62
2023/04/27 07:07:49;;;;;;;3.78;2.15;;;;;;;13.10;52.88;97950.25;5051542;28;20274;-62
2023/04/27 07:10:14;;;;;;;2.20;2.00;;;;;;;13.53;52.09;97994.94;5052211;28;20186;-62
2023/04/27 07:12:41;;;;;;;4.40;2.08;;;;;;;13.38;52.63;97966.88;5054897;28;20635;-61
2023/04/27 07:15:07;;;;;;;4.47;2.38;;;;;;;13.57;52.72;97991.16;5054950;28;20181;-62
2023/04/27 07:17:32;;;;;;;5.63;2.60;;;;;;;13.34;53.42;97953.34;5055608;28;20264;-62
2023/04/27 07:20:00;;;;;;;4.45;2.45;;;;;;;13.56;52.65;97979.09;5055635;28;20273;-62
2023/04/27 07:22:25;;;;;;;6.32;2.53;;;;;;;13.69;52.19;98015.22;5055468;28;20212;-61
2023/04/27 07:24:51;;;;;;;6.93;2.75;;;;;;;13.61;51.13;97996.88;5055571;28;20169;-62
2023/04/27 07:27:16;;;;;;;10.93;2.20;;;;;;;13.73;51.84;98022.66;5055318;28;20166;-62
2023/04/27 07:29:42;;;;;;;7.40;3.05;;;;;;;13.57;51.97;97995.50;5055247;28;20182;-62
2023/04/27 07:32:08;;;;;;;4.28;2.03;;;;;;;13.88;51.97;98046.50;5055332;28;20178;-60
2023/04/27 07:34:33;;;;;;;4.18;2.47;;;;;;;13.90;51.60;98031.56;5055370;28;20174;-60
2023/04/27 07:37:00;;;;;;;2.47;2.15;;;;;;;13.82;50.32;98034.03;5055216;28;20678;-60
2023/04/27 07:39:26;;;;;;;4.70;2.28;;;;;;;13.67;50.80;97998.97;5055487;28;20174;-60
2023/04/27 07:41:52;;;;;;;3.97;2.22;;;;;;;13.94;51.73;98051.16;5055135;28;20178;-60
2023/04/27 07:44:18;;;;;;;3.65;2.80;;;;;;;13.98;51.31;98052.50;5055203;28;20188;-60
2023/04/27 07:46:46;;;;;;;2.97;2.67;;;;;;;13.66;51.25;97994.72;5072623;28;20189;-60
2023/04/27 07:49:12;;;;;;;5.72;2.53;;;;;;;13.64;51.30;98001.84;5072614;28;20254;-60
2023/04/27 07:51:38;;;;;;;5.57;2.65;;;;;;;13.44;50.19;97958.53;5032640;28;20661;-60
2023/04/27 07:54:04;;;;;;;3.78;2.63;;;;;;;13.62;51.52;97983.78;5032542;28;20198;-60
2023/04/27 07:56:29;;;;;;;3.85;2.08;;;;;;;13.79;50.41;98006.50;5032615;28;20733;-60
2023/04/27 07:58:55;;;;;;;8.88;2.95;;;;;;;13.81;50.36;98015.00;5032269;28;20285;-60
2023/04/27 08:01:21;;;;;;;3.20;2.22;;;;;;;13.52;51.24;97988.13;5032318;28;20228;-60
2023/04/27 08:03:46;;;;;;;4.18;2.38;;;;;;;13.79;51.77;98021.28;5032215;28;20284;-61
2023/04/27 08:06:12;;;;;;;4.28;2.08;;;;;;;14.03;51.68;98045.97;5032207;28;20276;-61
2023/04/27 08:08:37;;;;;;;3.25;2.10;;;;;;;14.09;51.61;98039.38;5032220;28;20174;-61
2023/04/27 08:11:03;;;;;;;4.80;2.17;;;;;;;14.07;51.83;98010.09;5032210;28;20183;-61
2023/04/27 08:13:28;;;;;;;4.25;2.13;;;;;;;13.84;50.04;97967.94;5032134;28;20286;-61
2023/04/27 08:15:57;;;;;;;5.18;2.33;;;;;;;14.40;50.82;98043.56;5032076;28;20171;-60
2023/04/27 08:18:23;;;;;;;2.35;2.10;;;;;;;14.41;49.07;98040.00;5031921;28;20548;-61
2023/04/27 08:20:48;;;;;;;4.93;2.08;;;;;;;13.96;49.89;97961.63;5031817;28;20175;-61
2023/04/27 08:23:14;;;;;;;5.80;2.50;;;;;;;14.46;49.55;98043.81;5048878;28;20225;-61
2023/04/27 08:25:39;;;;;;;6.10;2.20;;;;;;;14.26;49.11;98010.13;5054387;28;20699;-61
2023/04/27 08:28:05;;;;;;;2.83;1.80;;;;;;;13.86;48.68;97960.81;5054610;28;20178;-61
2023/04/27 08:30:31;;;;;;;3.10;2.17;;;;;;;14.34;48.97;98018.88;5054210;28;20178;-61
2023/04/27 08:32:56;;;;;;;5.90;2.75;;;;;;;14.40;49.87;98028.75;5054013;28;20177;-60
2023/04/27 08:35:21;;;;;;;9.32;2.25;;;;;;;14.37;50.98;98008.22;5053989;28;20171;-61
2023/04/27 08:37:47;;;;;;;3.63;2.17;;;;;;;14.13;49.64;97962.72;5054482;28;20181;-61
2023/04/27 08:40:12;;;;;;;7.97;2.70;;;;;;;14.38;49.82;97988.19;5054027;28;20288;-61
2023/04/27 08:42:40;;;;;;;7.95;3.20;;;;;;;14.68;50.05;98011.44;5054013;28;20197;-61
2023/04/27 08:45:07;;;;;;;4.15;2.45;;;;;;;14.66;50.18;97984.72;5054020;28;20633;-61
2023/04/27 08:47:33;;;;;;;5.20;2.70;;;;;;;14.51;49.14;97947.06;5053934;28;20190;-60
2023/04/27 08:49:58;;;;;;;5.28;2.17;;;;;;;15.00;48.73;98004.13;5054013;28;20560;-61
2023/04/27 08:52:24;;;;;;;2.45;2.13;;;;;;;14.92;47.22;97989.19;5053820;28;20223;-61
2023/04/27 08:54:49;;;;;;;4.25;2.42;;;;;;;14.97;48.26;97980.94;5053778;28;20637;-61
2023/04/27 08:57:15;;;;;;;7.03;2.78;;;;;;;14.78;48.29;97942.78;5053791;28;20219;-61
2023/04/27 08:59:43;;;;;;;5.95;2.50;;;;;;;15.00;49.09;97962.44;5052602;28;20580;-61
2023/04/27 09:02:20;;;;;;;3.30;2.10;;;;;;;15.00;47.77;97938.97;5053503;28;20186;-61
2023/04/27 09:04:46;;;;;;;6.00;2.60;;;;;;;15.27;47.34;97972.88;5053522;28;20244;-61
2023/04/27 09:07:16;;;;;;;4.65;2.03;;;;;;;15.60;47.52;98004.41;5053622;28;20331;-61
2023/04/27 09:09:42;;;;;;;6.45;2.65;;;;;;;15.53;47.10;97999.94;5053604;28;20181;-61
2023/04/27 09:12:18;;;;;;;3.05;2.53;;;;;;;15.20;48.66;97930.91;5053471;28;20174;-61
2023/04/27 09:14:55;;;;;;;5.90;2.55;;;;;;;15.64;48.00;97997.94;5050439;28;20204;-61
2023/04/27 09:17:25;;;;;;;5.75;2.42;;;;;;;15.77;47.18;97998.41;5030603;28;20652;-61
2023/04/27 09:19:50;;;;;;;2.95;2.15;;;;;;;15.85;47.22;97987.25;5030815;28;20783;-61
2023/04/27 09:22:15;;;;;;;3.90;2.45;;;;;;;15.33;47.08;97922.81;5030680;28;20736;-61
2023/04/27 09:24:51;;;;;;;3.35;2.10;;;;;;;15.75;46.03;97963.81;5030841;28;20183;-61
2023/04/27 09:27:20;;;;;;;3.80;2.90;;;;;;;15.76;47.14;97960.25;5030996;28;20608;-61
2023/04/27 09:29:46;;;;;;;7.93;3.45;;;;;;;15.59;47.17;97911.50;5030331;28;20256;-61
2023/04/27 09:32:19;;;;;;;4.38;2.08;;;;;;;15.75;44.38;97918.66;5030838;28;20652;-61
2023/04/27 09:34:45;;;;;;;3.72;2.17;;;;;;;16.22;44.96;97987.91;5030779;28;20186;-61
2023/04/27 09:37:11;;;;;;;2.55;2.05;;;;;;;16.17;44.35;97984.94;5010765;28;20191;-61
2023/04/27 09:39:37;;;;;;;4.70;1.90;;;;;;;15.80;44.90;97912.03;4971033;28;20326;-61
2023/04/27 09:42:03;;;;;;;3.22;1.83;;;;;;;16.22;43.06;97993.94;4971549;28;20188;-61
2023/04/27 09:44:30;;;;;;;4.22;1.98;;;;;;;16.16;44.08;97978.09;4971553;28;20323;-61
2023/04/27 09:46:57;;;;;;;2.70;1.90;;;;;;;16.23;44.54;97981.72;4968827;28;20192;-61
2023/04/27 09:49:25;;;;;;;2.30;1.73;;;;;;;15.86;42.56;97905.41;4989664;28;20214;-61
2023/04/27 09:51:53;;;;;;;3.03;2.20;;;;;;;15.94;43.26;97931.56;4990845;28;20760;-61
2023/04/27 09:54:22;;;;;;;2.65;2.10;;;;;;;16.25;43.21;97972.78;4990934;28;20743;-61
2023/04/27 09:57:06;;;;;;;5.57;2.38;;;;;;;16.47;44.01;97981.94;4990632;28;20278;-61
2023/04/27 09:59:47;;;;;;;2.15;1.95;;;;;;;16.48;42.63;97986.19;4990714;28;20419;-61
2023/04/27 10:02:15;;;;;;;4.75;2.30;;;;;;;16.35;43.85;97949.19;4990427;28;20725;-61
2023/04/27 10:04:53;;;;;;;4.13;2.30;;;;;;;16.52;43.83;97983.16;4990353;28;20194;-61
2023/04/27 10:07:19;;;;;;;3.88;2.30;;;;;;;16.10;43.84;97895.97;4996418;28;20189;-61
2023/04/27 10:09:46;;;;;;;4.53;2.45;;;;;;;16.63;44.25;97977.69;5033455;28;20186;-61
2023/04/27 10:12:26;;;;;;;3.40;2.05;;;;;;;16.29;44.84;97910.63;5052549;28;20177;-61
2023/04/27 10:14:56;;;;;;;2.80;1.90;;;;;;;16.67;43.83;97973.78;5051337;28;20165;-61
2023/04/27 10:17:29;;;;;;;4.47;2.42;;;;;;;16.44;43.76;97935.25;5028113;28;20201;-62
2023/04/27 10:19:58;;;;;;;2.85;2.38;;;;;;;16.53;43.91;97950.00;5029532;28;20732;-61
2023/04/27 10:22:37;;;;;;;5.30;2.75;;;;;;;16.22;44.52;97904.38;5029992;28;20212;-61
2023/04/27 10:25:15;;;;;;;5.55;2.72;;;;;;;16.69;44.42;97976.25;5030065;28;20167;-61
2023/04/27 10:27:41;;;;;;;3.25;2.10;;;;;;;16.73;43.67;97978.38;5029040;28;20562;-61
2023/04/27 10:30:11;;;;;;;3.90;2.53;;;;;;;16.22;42.95;97905.19;5029899;28;20197;-62
2023/04/27 10:32:36;;;;;;;3.90;2.67;;;;;;;16.43;42.80;97938.81;5029811;28;20205;-61
2023/04/27 10:35:07;;;;;;;4.43;2.40;;;;;;;16.86;43.42;97983.22;5029903;28;20283;-61
2023/04/27 10:37:40;;;;;;;5.55;2.17;;;;;;;16.61;42.75;97906.47;5029939;28;20205;-61
2023/04/27 10:40:09;;;;;;;4.43;2.38;;;;;;;17.12;42.59;97976.16;5029885;28;20264;-61
2023/04/27 10:42:34;;;;;;;2.30;2.10;;;;;;;16.80;41.12;97910.66;5028858;28;20700;-61
2023/04/27 10:45:00;;;;;;;3.13;2.00;;;;;;;17.12;40.26;97979.59;5030104;28;20189;-61
2023/04/27 10:47:44;;;;;;;2.53;2.08;;;;;;;16.90;40.69;97968.88;5029695;28;20295;-61
2023/04/27 10:50:14;;;;;;;5.07;1.98;;;;;;;16.43;40.49;97923.97;5029844;28;20204;-61
2023/04/27 10:52:45;;;;;;;2.45;2.25;;;;;;;16.87;41.60;97987.44;5029685;28;20287;-61
2023/04/27 10:55:13;;;;;;;5.15;2.05;;;;;;;17.12;43.18;97999.69;5056424;28;20335;-61
2023/04/27 10:57:57;;;;;;;2.47;2.25;;;;;;;16.91;43.06;97945.16;5069495;28;20299;-61
2023/04/27 11:00:27;;;;;;;4.90;2.50;;;;;;;17.53;40.57;97998.91;5069691;28;20173;-61
2023/04/27 11:02:54;;;;;;;3.35;2.10;;;;;;;17.55;40.06;97986.50;5069489;28;20208;-61
2023/04/27 11:05:23;;;;;;;3.67;2.25;;;;;;;17.43;40.04;97938.88;5069564;28;20817;-61
2023/04/27 11:07:50;;;;;;;2.30;2.13;;;;;;;17.80;40.05;98009.16;5069568;28;20271;-61
2023/04/27 11:10:19;;;;;;;6.78;2.70;;;;;;;17.42;39.63;97955.56;5069488;28;20180;-61
2023/04/27 11:12:45;;;;;;;3.88;2.47;;;;;;;17.43;39.75;97993.81;5069569;28;20184;-61
2023/04/27 11:15:12;;;;;;;5.40;2.20;;;;;;;17.49;40.98;98008.06;5069478;28;20772;-61
2023/04/27 11:17:38;;;;;;;4.00;2.65;;;;;;;17.35;41.54;97990.31;5049182;28;20572;-61
2023/04/27 11:20:07;;;;;;;7.03;2.10;;;;;;;17.14;40.77;97935.81;5049189;28;20192;-62
2023/04/27 11:22:33;;;;;;;3.92;2.60;;;;;;;17.27;39.56;97958.91;5048848;28;20350;-61
2023/04/27 11:25:00;;;;;;;2.22;2.03;;;;;;;16.86;39.90;97925.72;5049226;28;20177;-61
2023/04/27 11:27:36;;;;;;;2.45;2.25;;;;;;;17.21;41.45;98010.03;5049265;28;20196;-61
2023/04/27 11:30:02;;;;;;;3.67;2.17;;;;;;;16.61;40.72;97942.22;5049258;28;20161;-61